Time;durP1;ratioP1;P1;durP2;ratioP2;P2;SDS_P1;SDS_P2;PMS_P1;PMS_P2;Temp;Humidity;BMP_temperature;BMP_pressure;BME280_temperature;BME280_humidity;BME280_pressure;Samples;Min_cycle;Max_cycle;Signal;HPM_P1;HPM_P2
2022/06/27 00:01:41;;;;;;;3.45;1.25;;;13.50;99.90;;;;;;5025373;28;20036;-65
2022/06/27 00:04:08;;;;;;;3.40;0.85;;;13.60;99.90;;;;;;5027802;28;20026;-63
2022/06/27 00:06:35;;;;;;;6.95;0.85;;;13.70;99.90;;;;;;5026194;28;20135;-61
2022/06/27 00:09:03;;;;;;;1.83;1.08;;;13.80;99.90;;;;;;5026643;28;20026;-64
2022/06/27 00:11:30;;;;;;;2.65;0.85;;;13.90;99.90;;;;;;5022625;28;20042;-63
2022/06/27 00:13:57;;;;;;;4.18;0.98;;;14.10;99.90;;;;;;5026517;28;20025;-63
2022/06/27 00:16:24;;;;;;;8.35;1.58;;;14.20;99.90;;;;;;5025830;28;20037;-63
2022/06/27 00:18:51;;;;;;;4.03;1.30;;;14.30;99.90;;;;;;5026480;28;20113;-62
2022/06/27 00:21:19;;;;;;;2.95;0.60;;;14.40;99.90;;;;;;5025074;28;20029;-63
2022/06/27 00:23:46;;;;;;;3.80;0.65;;;14.50;99.90;;;;;;5027384;28;20116;-67
2022/06/27 00:26:14;;;;;;;3.28;0.60;;;14.50;99.90;;;;;;5025922;28;20040;-61
2022/06/27 00:28:41;;;;;;;2.30;0.70;;;14.60;99.90;;;;;;5027100;28;20036;-60
2022/06/27 00:31:08;;;;;;;1.25;0.35;;;14.70;99.90;;;;;;5027073;28;20046;-65
2022/06/27 00:33:35;;;;;;;2.30;0.40;;;14.70;99.90;;;;;;5024758;28;20056;-61
2022/06/27 00:36:02;;;;;;;0.85;0.30;;;14.70;99.90;;;;;;5027662;28;20610;-63
2022/06/27 00:38:29;;;;;;;3.20;0.75;;;14.70;99.90;;;;;;5027046;28;20442;-62
2022/06/27 00:40:57;;;;;;;3.70;0.75;;;14.80;99.90;;;;;;5025945;28;20026;-64
2022/06/27 00:43:24;;;;;;;1.13;0.68;;;15.00;99.90;;;;;;5027000;28;20029;-65
2022/06/27 00:45:51;;;;;;;1.60;0.60;;;15.10;99.90;;;;;;5027485;28;20430;-61
2022/06/27 00:48:18;;;;;;;1.75;0.60;;;15.10;99.20;;;;;;5026876;28;20151;-61
2022/06/27 00:50:46;;;;;;;2.70;0.80;;;15.20;98.90;;;;;;5027721;28;20021;-61
2022/06/27 00:53:13;;;;;;;4.68;0.65;;;15.30;99.20;;;;;;5025116;28;20400;-63
2022/06/27 00:55:42;;;;;;;2.03;0.40;;;15.20;98.80;;;;;;5024502;28;20187;-61
2022/06/27 00:58:09;;;;;;;2.40;0.75;;;15.10;99.30;;;;;;5026627;28;20068;-63
2022/06/27 01:00:36;;;;;;;1.35;0.50;;;15.30;99.20;;;;;;5026416;28;20438;-62
2022/06/27 01:03:04;;;;;;;5.18;1.00;;;15.30;98.90;;;;;;5026361;28;20112;-65
2022/06/27 01:05:31;;;;;;;6.85;0.73;;;15.50;98.70;;;;;;5026551;28;20479;-62
2022/06/27 01:07:58;;;;;;;1.55;0.60;;;15.40;98.40;;;;;;5025648;28;20026;-61
2022/06/27 01:10:25;;;;;;;0.90;0.40;;;15.40;98.30;;;;;;5026558;28;20458;-64
2022/06/27 01:12:53;;;;;;;2.42;0.60;;;15.30;97.90;;;;;;5027239;28;20235;-61
2022/06/27 01:15:20;;;;;;;3.10;0.55;;;15.40;98.30;;;;;;5024505;28;20059;-60
2022/06/27 01:17:48;;;;;;;1.25;0.52;;;15.40;97.90;;;;;;5026807;28;20460;-65
2022/06/27 01:20:15;;;;;;;0.88;0.57;;;15.50;97.70;;;;;;5026523;28;20025;-64
2022/06/27 01:22:42;;;;;;;0.73;0.40;;;15.60;97.40;;;;;;5024291;28;20104;-60
2022/06/27 01:25:13;;;;;;;4.18;0.60;;;15.60;97.60;;;;;;5026728;28;20033;-63
2022/06/27 01:27:41;;;;;;;0.60;0.30;;;15.60;97.50;;;;;;5026141;28;20029;-61
2022/06/27 01:30:09;;;;;;;0.65;0.50;;;15.70;97.30;;;;;;5025140;28;20575;-62
2022/06/27 01:32:37;;;;;;;1.33;0.52;;;15.60;96.80;;;;;;5025864;28;20036;-63
2022/06/27 01:35:04;;;;;;;3.42;0.60;;;15.70;97.40;;;;;;5023944;28;20018;-61
2022/06/27 01:37:32;;;;;;;2.47;1.00;;;15.80;96.90;;;;;;5025057;28;20021;-64
2022/06/27 01:40:00;;;;;;;1.17;0.52;;;16.00;96.50;;;;;;5025990;28;20734;-64
2022/06/27 01:42:28;;;;;;;1.58;0.60;;;16.00;96.40;;;;;;5025487;28;20021;-64
2022/06/27 01:44:55;;;;;;;3.20;0.63;;;16.20;96.70;;;;;;5026244;28;20026;-62
2022/06/27 01:47:23;;;;;;;1.42;0.60;;;16.40;96.00;;;;;;5024801;28;20033;-66
2022/06/27 01:49:50;;;;;;;1.67;0.85;;;16.60;95.50;;;;;;5025184;28;20033;-63
2022/06/27 01:52:17;;;;;;;3.63;0.82;;;16.70;95.40;;;;;;5025060;28;20028;-65
2022/06/27 01:54:45;;;;;;;5.10;0.88;;;16.70;94.80;;;;;;5025519;28;20033;-63
2022/06/27 01:57:14;;;;;;;1.00;0.77;;;16.70;94.90;;;;;;5025967;28;20018;-63
2022/06/27 01:59:41;;;;;;;2.30;0.45;;;16.80;94.40;;;;;;5020048;28;20032;-60
2022/06/27 02:02:08;;;;;;;2.58;0.90;;;16.80;94.70;;;;;;5025247;28;20338;-59
2022/06/27 02:04:38;;;;;;;1.75;0.88;;;16.80;93.90;;;;;;5025174;28;20561;-62
2022/06/27 02:07:05;;;;;;;0.88;0.40;;;16.90;94.20;;;;;;5024836;28;20056;-62
2022/06/27 02:09:32;;;;;;;0.82;0.30;;;16.80;93.50;;;;;;5025061;28;20116;-62
2022/06/27 02:12:18;;;;;;;2.35;0.60;;;16.80;93.50;;;;;;5025493;28;20034;-62
2022/06/27 02:14:50;;;;;;;3.90;0.60;;;17.00;93.80;;;;;;5024894;28;20033;-64
2022/06/27 02:17:17;;;;;;;1.15;0.35;;;17.20;93.30;;;;;;5025008;28;20460;-61
2022/06/27 02:19:45;;;;;;;1.77;0.63;;;17.30;92.60;;;;;;5025607;28;20025;-61
2022/06/27 02:22:13;;;;;;;0.70;0.43;;;17.30;91.80;;;;;;5025039;28;20071;-63
2022/06/27 02:24:41;;;;;;;0.85;0.38;;;17.40;91.40;;;;;;5023029;28;20034;-62
2022/06/27 02:27:10;;;;;;;3.13;0.50;;;17.60;91.30;;;;;;5023773;28;20033;-59
2022/06/27 02:29:37;;;;;;;0.73;0.40;;;17.40;91.60;;;;;;5024283;28;20119;-64
2022/06/27 02:32:06;;;;;;;2.03;0.52;;;17.50;90.30;;;;;;5024490;28;20123;-64
2022/06/27 02:34:35;;;;;;;3.08;0.63;;;17.50;89.80;;;;;;5023096;28;20029;-61
2022/06/27 02:37:04;;;;;;;2.63;0.68;;;16.90;89.70;;;;;;5023572;28;20033;-61
2022/06/27 02:39:34;;;;;;;2.63;0.60;;;16.80;90.80;;;;;;5023851;28;20032;-64
2022/06/27 02:42:03;;;;;;;1.80;0.52;;;16.90;90.10;;;;;;5022879;28;20025;-62
2022/06/27 02:44:31;;;;;;;5.03;0.80;;;17.20;89.80;;;;;;5024888;28;20523;-62
2022/06/27 02:46:59;;;;;;;1.38;0.70;;;17.40;89.40;;;;;;5024124;28;20254;-59
2022/06/27 02:49:27;;;;;;;1.65;0.65;;;17.60;89.20;;;;;;5024568;28;20075;-62
2022/06/27 02:52:18;;;;;;;3.88;0.90;;;17.80;87.60;;;;;;5026813;28;20053;-59
2022/06/27 02:54:50;;;;;;;5.80;3.90;;;17.90;88.80;;;;;;5024351;28;20025;-61
2022/06/27 02:57:35;;;;;;;1.10;0.52;;;18.20;87.50;;;;;;5026514;28;20018;-63
2022/06/27 03:00:05;;;;;;;1.48;0.45;;;18.00;85.60;;;;;;5024531;28;20052;-59
2022/06/27 03:02:33;;;;;;;1.02;0.50;;;17.40;86.50;;;;;;5025514;28;20384;-59
2022/06/27 03:05:00;;;;;;;1.90;0.70;;;17.00;89.00;;;;;;5024422;28;20025;-61
2022/06/27 03:07:27;;;;;;;1.27;0.73;;;16.90;90.00;;;;;;5024087;28;20400;-61
2022/06/27 03:09:54;;;;;;;1.30;0.50;;;16.80;88.80;;;;;;5024425;28;20026;-64
2022/06/27 03:12:22;;;;;;;1.70;0.60;;;16.70;88.90;;;;;;5022447;28;20053;-64
2022/06/27 03:14:49;;;;;;;1.17;0.70;;;16.50;89.40;;;;;;5025059;28;20029;-60
2022/06/27 03:17:16;;;;;;;2.40;0.50;;;16.50;88.20;;;;;;5025629;28;20057;-64
2022/06/27 03:19:43;;;;;;;1.05;0.52;;;16.40;89.30;;;;;;5023109;28;20056;-64
2022/06/27 03:22:10;;;;;;;3.03;0.82;;;16.40;88.70;;;;;;5024564;28;20026;-63
2022/06/27 03:24:37;;;;;;;2.78;1.35;;;16.40;90.10;;;;;;5024590;28;20107;-61
2022/06/27 03:27:05;;;;;;;2.08;0.93;;;16.60;89.70;;;;;;5024145;28;20396;-60
2022/06/27 03:29:32;;;;;;;5.63;1.17;;;16.60;90.20;;;;;;5024979;28;20054;-59
2022/06/27 03:31:59;;;;;;;1.73;1.00;;;16.50;89.60;;;;;;5025278;28;20056;-64
2022/06/27 03:34:26;;;;;;;2.63;1.05;;;16.50;90.50;;;;;;5026241;28;20021;-61
2022/06/27 03:36:53;;;;;;;1.95;0.70;;;16.50;89.10;;;;;;5027656;28;20032;-61
2022/06/27 03:39:20;;;;;;;3.67;1.00;;;16.30;87.50;;;;;;5028602;28;20537;-61
2022/06/27 03:41:48;;;;;;;4.40;0.80;;;16.20;89.00;;;;;;5025015;28;20476;-63
2022/06/27 03:44:15;;;;;;;1.75;0.70;;;16.10;88.90;;;;;;5029008;28;20056;-66
2022/06/27 03:46:42;;;;;;;1.67;0.77;;;16.00;88.50;;;;;;5025015;28;20387;-62
2022/06/27 03:51:55;;;;;;;3.22;1.13;;;16.20;88.80;;;;;;5028127;28;20040;-61
2022/06/27 03:54:23;;;;;;;1.83;0.73;;;16.30;89.20;;;;;;5027430;28;20026;-65
2022/06/27 03:56:50;;;;;;;2.63;0.80;;;16.30;88.20;;;;;;5028082;28;20037;-66
2022/06/27 03:59:18;;;;;;;2.83;1.13;;;16.40;88.70;;;;;;5027842;28;20028;-64
2022/06/27 04:01:46;;;;;;;2.30;0.70;;;16.30;89.00;;;;;;5027613;28;20370;-62
2022/06/27 04:04:13;;;;;;;2.97;0.90;;;16.40;88.80;;;;;;5026740;28;20121;-63
2022/06/27 04:06:40;;;;;;;1.52;0.68;;;16.40;88.40;;;;;;5028046;28;20156;-63
2022/06/27 04:09:07;;;;;;;2.30;0.82;;;16.40;87.60;;;;;;5027929;28;20025;-60
2022/06/27 04:11:35;;;;;;;2.00;0.77;;;16.20;87.30;;;;;;5027236;28;20429;-60
2022/06/27 04:14:02;;;;;;;2.75;0.95;;;16.20;89.10;;;;;;5027578;28;20030;-66
2022/06/27 04:16:29;;;;;;;3.50;0.80;;;16.30;88.80;;;;;;5028295;28;20021;-61
2022/06/27 04:18:56;;;;;;;1.60;0.93;;;16.30;88.10;;;;;;5027197;28;20208;-61
2022/06/27 04:21:23;;;;;;;2.45;0.80;;;16.20;88.70;;;;;;5026672;28;20041;-63
2022/06/27 04:23:50;;;;;;;3.13;1.83;;;16.20;88.80;;;;;;5027443;28;20029;-64
2022/06/27 04:26:18;;;;;;;0.93;0.70;;;16.40;90.00;;;;;;5027142;28;20321;-62
2022/06/27 04:28:45;;;;;;;1.20;0.63;;;16.50;88.80;;;;;;5027369;28;20021;-64
2022/06/27 04:31:13;;;;;;;2.60;0.63;;;16.60;88.80;;;;;;5026864;28;20482;-64
2022/06/27 04:33:40;;;;;;;3.22;0.80;;;16.50;88.10;;;;;;5022517;28;20044;-65
2022/06/27 04:36:08;;;;;;;1.42;0.85;;;16.40;88.00;;;;;;5027109;28;20029;-65
2022/06/27 04:38:36;;;;;;;5.43;0.73;;;16.30;88.20;;;;;;5026992;28;20550;-61
2022/06/27 04:41:03;;;;;;;4.57;0.80;;;16.30;88.40;;;;;;5026554;28;20171;-63
2022/06/27 04:43:32;;;;;;;1.63;0.80;;;16.30;88.80;;;;;;5026746;28;20037;-61
2022/06/27 04:46:01;;;;;;;1.98;0.68;;;16.40;89.10;;;;;;5027327;28;20029;-62
2022/06/27 04:48:34;;;;;;;3.53;0.90;;;16.50;89.10;;;;;;5025423;28;20195;-62
2022/06/27 04:51:02;;;;;;;2.50;0.60;;;16.50;89.00;;;;;;5026316;28;20053;-62
2022/06/27 04:53:30;;;;;;;3.30;0.88;;;16.30;87.90;;;;;;5027111;28;20026;-63
2022/06/27 04:55:57;;;;;;;5.32;1.05;;;16.00;89.50;;;;;;5027964;28;20160;-61
2022/06/27 04:58:25;;;;;;;2.72;0.93;;;15.70;88.70;;;;;;5026266;28;20099;-62
2022/06/27 05:00:52;;;;;;;5.60;1.30;;;15.40;88.70;;;;;;5027010;28;20746;-65
2022/06/27 05:03:22;;;;;;;3.35;1.00;;;15.10;89.10;;;;;;5025775;28;20056;-63
2022/06/27 05:05:52;;;;;;;2.17;0.90;;;14.90;90.00;;;;;;5018935;28;20060;-62
2022/06/27 05:08:20;;;;;;;2.20;0.80;;;14.90;90.00;;;;;;5024260;28;20038;-62
2022/06/27 05:10:48;;;;;;;1.52;0.90;;;14.90;89.20;;;;;;5022591;28;20061;-61
2022/06/27 05:13:15;;;;;;;1.58;0.65;;;14.80;88.70;;;;;;5022818;28;20388;-62
2022/06/27 05:15:42;;;;;;;3.42;1.20;;;14.60;87.80;;;;;;5018262;28;20049;-63
2022/06/27 05:18:09;;;;;;;2.70;1.63;;;14.40;87.30;;;;;;5022711;28;20029;-65
2022/06/27 05:20:36;;;;;;;3.83;1.10;;;14.20;86.60;;;;;;5022769;28;20105;-65
2022/06/27 05:23:03;;;;;;;2.05;0.75;;;14.20;87.90;;;;;;5022637;28;20049;-62
2022/06/27 05:25:30;;;;;;;1.48;0.93;;;14.70;86.50;;;;;;5023679;28;20022;-64
2022/06/27 05:27:58;;;;;;;3.22;1.27;;;15.30;84.40;;;;;;5023370;28;20021;-63
2022/06/27 05:30:25;;;;;;;1.83;1.13;;;15.60;83.10;;;;;;5069930;22;20435;-67
2022/06/27 05:32:52;;;;;;;3.53;2.33;;;15.80;81.50;;;;;;5047573;28;20609;-66
2022/06/27 05:35:20;;;;;;;2.25;1.13;;;15.80;81.90;;;;;;5044746;28;20039;-63
2022/06/27 05:37:49;;;;;;;1.05;0.68;;;16.00;80.80;;;;;;5051893;28;20024;-66
2022/06/27 05:40:17;;;;;;;1.52;0.98;;;16.00;81.20;;;;;;5058411;28;20024;-63
2022/06/27 05:42:45;;;;;;;2.53;0.90;;;16.00;80.60;;;;;;5049638;28;20144;-62
2022/06/27 05:45:12;;;;;;;2.28;0.80;;;15.90;80.30;;;;;;5053133;28;20036;-61
2022/06/27 05:47:40;;;;;;;0.98;0.88;;;15.80;80.40;;;;;;5049527;28;20032;-63
2022/06/27 05:50:08;;;;;;;2.03;1.00;;;15.40;80.90;;;;;;5048164;28;20035;-66
2022/06/27 05:52:39;;;;;;;2.08;0.85;;;14.90;82.30;;;;;;5051573;28;21127;-64
2022/06/27 05:55:08;;;;;;;2.25;0.90;;;14.40;82.30;;;;;;5052550;28;20037;-64
2022/06/27 05:57:36;;;;;;;3.28;1.08;;;14.00;83.10;;;;;;5053078;28;20016;-65
2022/06/27 06:00:05;;;;;;;1.40;1.00;;;13.70;83.80;;;;;;5052653;28;20526;-62
2022/06/27 06:02:32;;;;;;;2.10;0.82;;;13.60;84.70;;;;;;5037468;28;21229;-62
2022/06/27 06:05:00;;;;;;;3.17;0.82;;;13.50;84.80;;;;;;5035167;28;20103;-68
2022/06/27 06:07:27;;;;;;;2.15;1.17;;;13.50;85.30;;;;;;5033426;28;20033;-63
2022/06/27 06:09:54;;;;;;;1.33;0.80;;;13.50;85.70;;;;;;5034112;28;20029;-68
2022/06/27 06:12:24;;;;;;;2.03;0.98;;;13.50;85.50;;;;;;5029448;28;20113;-64
2022/06/27 06:14:52;;;;;;;2.58;0.90;;;13.60;84.90;;;;;;4341626;28;10000374;-63
2022/06/27 06:17:22;;;;;;;3.85;0.90;;;13.50;83.80;;;;;;5029898;28;20337;-65
2022/06/27 06:19:49;;;;;;;2.33;0.80;;;13.30;84.10;;;;;;5032786;28;20711;-63
2022/06/27 06:22:17;;;;;;;1.75;0.82;;;13.10;84.10;;;;;;5028984;28;20033;-65
2022/06/27 06:24:47;;;;;;;2.00;0.98;;;13.00;84.70;;;;;;5031061;28;20076;-66
2022/06/27 06:27:14;;;;;;;5.18;1.13;;;12.90;85.50;;;;;;5033370;28;20056;-67
2022/06/27 06:29:44;;;;;;;3.22;1.30;;;12.90;85.60;;;;;;5029307;28;20575;-64
2022/06/27 06:32:12;;;;;;;3.75;1.02;;;12.80;86.00;;;;;;5029294;28;20018;-62
2022/06/27 06:34:40;;;;;;;1.67;0.80;;;12.70;86.00;;;;;;5029367;28;20654;-64
2022/06/27 06:37:07;;;;;;;4.25;1.20;;;12.60;86.30;;;;;;5031848;28;20347;-62
2022/06/27 06:39:34;;;;;;;3.03;0.95;;;12.50;87.90;;;;;;5032874;28;20036;-65
2022/06/27 06:42:02;;;;;;;1.90;0.80;;;12.40;87.80;;;;;;5030666;28;20049;-62
2022/06/27 06:44:30;;;;;;;4.15;0.90;;;12.30;88.10;;;;;;5031851;28;20053;-63
2022/06/27 06:46:58;;;;;;;2.05;0.98;;;12.20;88.60;;;;;;5025972;28;20024;-67
2022/06/27 06:49:25;;;;;;;2.88;1.10;;;12.10;89.30;;;;;;5029472;28;20094;-65
2022/06/27 06:51:53;;;;;;;3.85;0.85;;;12.00;89.40;;;;;;5023546;28;20036;-65
2022/06/27 06:54:20;;;;;;;2.53;0.90;;;11.90;90.50;;;;;;5030186;28;20040;-65
2022/06/27 06:56:52;;;;;;;3.08;1.45;;;11.80;90.50;;;;;;5032768;28;20453;-65
2022/06/27 06:59:19;;;;;;;1.63;1.00;;;11.80;90.50;;;;;;5032568;28;20021;-65
2022/06/27 07:01:47;;;;;;;2.15;1.10;;;11.60;90.80;;;;;;5025476;28;20029;-65
2022/06/27 07:04:15;;;;;;;1.83;1.05;;;11.50;91.40;;;;;;5031724;28;20033;-65
2022/06/27 07:06:42;;;;;;;2.53;1.10;;;11.50;91.30;;;;;;5033632;28;20045;-65
2022/06/27 07:09:10;;;;;;;1.40;0.85;;;11.40;91.50;;;;;;5037156;28;20039;-66
2022/06/27 07:11:39;;;;;;;2.70;0.95;;;11.30;91.90;;;;;;5031819;28;20083;-62
2022/06/27 07:14:07;;;;;;;3.42;1.60;;;11.30;92.20;;;;;;5034618;28;20502;-63
2022/06/27 07:16:35;;;;;;;7.00;1.55;;;11.30;91.80;;;;;;5034723;28;20229;-63
2022/06/27 07:19:03;;;;;;;2.90;1.20;;;11.10;92.80;;;;;;5034506;28;20029;-62
2022/06/27 07:21:31;;;;;;;2.35;0.90;;;11.10;91.80;;;;;;5033416;28;20519;-62
2022/06/27 07:24:00;;;;;;;1.23;0.80;;;11.10;91.70;;;;;;5035357;28;20029;-62
2022/06/27 07:26:29;;;;;;;2.30;1.20;;;11.10;91.50;;;;;;5034073;28;20653;-63
2022/06/27 07:28:57;;;;;;;3.38;1.55;;;11.10;91.70;;;;;;5036197;28;20060;-62
2022/06/27 07:31:25;;;;;;;4.50;2.00;;;11.00;91.30;;;;;;5032221;28;20132;-63
2022/06/27 07:33:54;;;;;;;1.20;0.93;;;11.00;92.70;;;;;;5026559;28;20052;-63
2022/06/27 07:36:25;;;;;;;1.80;1.02;;;11.10;91.50;;;;;;5031359;28;20030;-62
2022/06/27 07:38:54;;;;;;;3.13;1.00;;;11.10;91.60;;;;;;5034729;28;20457;-62
2022/06/27 07:41:24;;;;;;;2.22;1.20;;;11.00;91.60;;;;;;5026312;28;20423;-61
2022/06/27 07:43:54;;;;;;;3.53;0.80;;;11.00;92.50;;;;;;5035770;28;20052;-60
2022/06/27 07:46:21;;;;;;;2.67;1.30;;;11.00;92.10;;;;;;5031883;28;20034;-70
2022/06/27 07:48:52;;;;;;;3.15;1.20;;;11.00;92.00;;;;;;5038477;28;20045;-63
2022/06/27 07:51:19;;;;;;;4.15;1.20;;;11.00;92.00;;;;;;5034674;28;20029;-64
2022/06/27 07:53:48;;;;;;;2.35;1.25;;;10.90;91.90;;;;;;5034807;28;20416;-70
2022/06/27 07:56:22;;;;;;;3.65;0.98;;;10.90;91.30;;;;;;5033934;28;20094;-63
2022/06/27 07:58:49;;;;;;;1.40;1.00;;;10.80;91.80;;;;;;5035027;28;20029;-67
2022/06/27 08:01:19;;;;;;;4.22;1.60;;;10.90;91.10;;;;;;5032945;28;20018;-67
2022/06/27 08:03:49;;;;;;;1.70;0.77;;;11.00;91.40;;;;;;5030701;28;20040;-64
2022/06/27 08:06:21;;;;;;;3.50;1.17;;;10.90;90.80;;;;;;5034929;28;20503;-68
2022/06/27 08:08:57;;;;;;;3.22;1.85;;;10.80;91.10;;;;;;5036666;28;20029;-68
2022/06/27 08:11:27;;;;;;;3.00;1.05;;;10.80;91.10;;;;;;5031264;28;20040;-67
2022/06/27 08:13:56;;;;;;;1.75;1.00;;;10.80;90.90;;;;;;5034667;28;20029;-66
2022/06/27 08:16:25;;;;;;;2.08;0.90;;;10.90;90.70;;;;;;5031278;28;20091;-65
2022/06/27 08:18:53;;;;;;;2.42;1.30;;;10.90;90.60;;;;;;5033362;28;20183;-65
2022/06/27 08:21:25;;;;;;;1.75;0.90;;;10.90;90.00;;;;;;5031021;28;20029;-67
2022/06/27 08:23:56;;;;;;;1.85;0.88;;;10.90;90.30;;;;;;5034149;28;20047;-68
2022/06/27 08:26:25;;;;;;;3.83;1.23;;;10.90;90.00;;;;;;5032452;28;20040;-68
2022/06/27 08:28:53;;;;;;;2.83;1.00;;;10.90;88.90;;;;;;5036691;28;20491;-69
2022/06/27 08:31:21;;;;;;;2.38;1.10;;;11.00;88.10;;;;;;5032335;28;20067;-66
2022/06/27 08:33:51;;;;;;;3.30;1.25;;;11.00;88.50;;;;;;5029283;28;20136;-70
2022/06/27 08:36:19;;;;;;;1.83;1.00;;;11.00;88.70;;;;;;5029953;28;20040;-68
2022/06/27 08:38:50;;;;;;;1.30;1.00;;;10.90;88.70;;;;;;5035204;28;20509;-67
2022/06/27 08:41:19;;;;;;;2.00;1.00;;;10.90;88.20;;;;;;5032870;28;20021;-67
2022/06/27 08:43:47;;;;;;;3.30;1.00;;;11.00;87.90;;;;;;5032294;28;20435;-67
2022/06/27 08:46:16;;;;;;;2.13;1.10;;;10.90;88.20;;;;;;5033587;28;20044;-71
2022/06/27 08:48:45;;;;;;;2.88;1.10;;;10.80;88.20;;;;;;5033935;28;20067;-68
2022/06/27 08:51:14;;;;;;;3.05;0.93;;;11.00;86.90;;;;;;5034069;28;20491;-66
2022/06/27 08:53:41;;;;;;;3.42;1.13;;;10.90;87.20;;;;;;5031812;28;20168;-67
2022/06/27 08:56:12;;;;;;;2.47;1.00;;;10.90;87.00;;;;;;5033829;28;20472;-68
2022/06/27 08:58:42;;;;;;;1.75;0.90;;;10.90;86.60;;;;;;5032199;28;20029;-65
2022/06/27 09:01:10;;;;;;;2.47;0.82;;;10.90;86.70;;;;;;5035904;28;20029;-66
2022/06/27 09:03:37;;;;;;;4.72;1.30;;;11.00;86.30;;;;;;5030176;28;20032;-70
2022/06/27 09:06:07;;;;;;;1.83;0.90;;;10.90;86.40;;;;;;5035306;28;20118;-69
2022/06/27 09:08:54;;;;;;;2.65;0.70;;;10.90;87.00;;;;;;5034690;28;20032;-70
2022/06/27 09:11:29;;;;;;;1.83;0.80;;;10.90;86.80;;;;;;5034749;28;20103;-67
2022/06/27 09:13:56;;;;;;;2.92;0.93;;;10.90;86.30;;;;;;5034366;28;20024;-65
2022/06/27 09:16:24;;;;;;;2.50;0.93;;;10.90;86.50;;;;;;5029977;28;20122;-66
2022/06/27 09:18:51;;;;;;;3.55;0.98;;;10.80;87.10;;;;;;5032372;28;20082;-65
2022/06/27 09:21:18;;;;;;;4.40;1.17;;;10.70;87.30;;;;;;5029692;28;20035;-67
2022/06/27 09:23:58;;;;;;;1.90;0.90;;;10.70;87.00;;;;;;5032268;28;20069;-68
2022/06/27 09:26:29;;;;;;;1.20;0.65;;;10.70;87.60;;;;;;5032737;28;20080;-67
2022/06/27 09:29:01;;;;;;;2.67;1.23;;;10.60;87.80;;;;;;5032565;28;20028;-66
2022/06/27 09:31:28;;;;;;;4.15;1.42;;;10.50;88.50;;;;;;5032845;28;20041;-68
2022/06/27 09:34:08;;;;;;;2.25;1.13;;;10.50;89.00;;;;;;5023783;28;20112;-68
2022/06/27 09:36:39;;;;;;;3.83;1.30;;;10.30;89.60;;;;;;5035414;28;20021;-66
2022/06/27 09:39:10;;;;;;;2.50;1.58;;;10.20;90.10;;;;;;5031454;28;20546;-66
2022/06/27 09:41:40;;;;;;;1.55;0.93;;;10.10;90.20;;;;;;5033479;28;20025;-66
2022/06/27 09:44:11;;;;;;;2.53;1.40;;;9.90;90.30;;;;;;5033256;28;20029;-66
2022/06/27 09:46:42;;;;;;;2.00;1.00;;;9.80;90.60;;;;;;5026420;28;20118;-66
2022/06/27 09:49:12;;;;;;;1.27;1.00;;;9.60;91.30;;;;;;5033051;28;20031;-64
2022/06/27 09:51:41;;;;;;;2.03;1.20;;;9.50;91.40;;;;;;5028127;28;20593;-66
2022/06/27 09:54:11;;;;;;;2.95;1.10;;;9.50;91.30;;;;;;5032168;28;20475;-64
2022/06/27 09:56:41;;;;;;;1.70;1.10;;;9.60;91.30;;;;;;5028191;28;20029;-65
2022/06/27 09:59:12;;;;;;;2.92;0.90;;;9.60;91.50;;;;;;5029028;28;20025;-65
2022/06/27 10:01:43;;;;;;;4.07;1.15;;;9.50;91.90;;;;;;5031735;28;20402;-66
2022/06/27 10:04:11;;;;;;;2.80;0.95;;;9.40;92.40;;;;;;5032368;28;20055;-64
2022/06/27 10:06:41;;;;;;;1.42;1.10;;;9.50;92.40;;;;;;5030414;28;20296;-65
2022/06/27 10:09:10;;;;;;;2.00;0.98;;;9.50;92.50;;;;;;5032082;28;20079;-65
2022/06/27 10:11:38;;;;;;;5.65;1.23;;;9.60;92.70;;;;;;5027973;28;20031;-66
2022/06/27 10:14:22;;;;;;;3.38;1.42;;;9.60;92.80;;;;;;5027875;28;20391;-66
2022/06/27 10:16:58;;;;;;;3.15;1.30;;;9.60;92.90;;;;;;5032188;28;20047;-65
2022/06/27 10:19:29;;;;;;;3.22;1.63;;;9.60;93.10;;;;;;5031822;28;20044;-66
2022/06/27 10:21:57;;;;;;;2.30;1.40;;;9.50;93.20;;;;;;5031394;28;20303;-64
2022/06/27 10:24:25;;;;;;;1.67;1.13;;;9.40;93.60;;;;;;5031064;28;20025;-66
2022/06/27 10:26:54;;;;;;;4.25;1.23;;;9.50;93.60;;;;;;5030826;28;20036;-65
2022/06/27 10:29:45;;;;;;;7.38;1.50;;;9.40;94.00;;;;;;5033608;28;20160;-66
2022/06/27 10:32:46;;;;;;;6.45;1.50;;;9.60;93.80;;;;;;5029526;28;20029;-64
2022/06/27 10:35:14;;;;;;;1.33;1.10;;;9.60;94.20;;;;;;5029873;28;20072;-63
2022/06/27 10:37:43;;;;;;;2.92;1.30;;;9.60;93.80;;;;;;5032391;28;20233;-63
2022/06/27 10:40:23;;;;;;;2.65;1.33;;;9.50;94.10;;;;;;5035603;28;20064;-65
2022/06/27 10:42:57;;;;;;;2.53;1.30;;;9.40;94.20;;;;;;5036155;28;20503;-67
2022/06/27 10:45:28;;;;;;;2.20;1.30;;;9.40;94.60;;;;;;5036623;28;20115;-65
2022/06/27 10:47:57;;;;;;;2.83;1.55;;;9.30;94.70;;;;;;5041153;28;20024;-65
2022/06/27 10:50:28;;;;;;;3.08;2.00;;;9.30;94.70;;;;;;5037394;28;20021;-67
2022/06/27 10:53:19;;;;;;;3.55;2.20;;;9.50;94.40;;;;;;5034953;28;20851;-67
2022/06/27 10:55:47;;;;;;;4.38;2.22;;;9.50;94.20;;;;;;5023223;28;20409;-67
2022/06/27 10:58:32;;;;;;;3.35;2.00;;;9.50;94.40;;;;;;5036246;28;20025;-66
2022/06/27 11:01:25;;;;;;;3.13;2.35;;;9.50;94.60;;;;;;5034388;28;20025;-65
2022/06/27 11:03:52;;;;;;;3.03;2.22;;;9.50;94.20;;;;;;5034967;28;20653;-66
2022/06/27 11:06:21;;;;;;;2.67;1.77;;;9.50;94.30;;;;;;5037628;28;20017;-65
2022/06/27 11:08:51;;;;;;;3.75;1.75;;;9.50;94.20;;;;;;5039351;28;20174;-65
2022/06/27 11:11:27;;;;;;;4.25;1.45;;;9.50;94.30;;;;;;5034754;28;20407;-65
2022/06/27 11:13:59;;;;;;;1.58;1.40;;;9.40;94.10;;;;;;5023463;28;20508;-65
2022/06/27 11:16:32;;;;;;;3.80;1.50;;;9.30;94.20;;;;;;5024127;28;20410;-64
2022/06/27 11:19:02;;;;;;;4.45;1.35;;;9.30;94.40;;;;;;5024034;28;20349;-65
2022/06/27 11:21:35;;;;;;;4.93;1.65;;;9.20;94.70;;;;;;5022127;28;20619;-67
2022/06/27 11:24:03;;;;;;;2.30;1.80;;;9.10;94.60;;;;;;5025518;28;20025;-65
2022/06/27 11:26:32;;;;;;;6.57;1.58;;;9.10;95.00;;;;;;5024027;28;20044;-65
2022/06/27 11:32:06;;;;;;;2.58;1.15;;;9.00;95.10;;;;;;5019491;28;20059;-66
2022/06/27 11:34:38;;;;;;;3.25;1.55;;;8.90;95.50;;;;;;5023439;28;20048;-64
2022/06/27 11:37:18;;;;;;;4.20;1.63;;;8.80;95.80;;;;;;5030425;28;20547;-65
2022/06/27 11:40:03;;;;;;;2.80;1.52;;;8.80;95.70;;;;;;5033582;28;20038;-66
2022/06/27 11:42:32;;;;;;;4.38;1.45;;;8.80;95.50;;;;;;5029644;28;20028;-65
2022/06/27 11:45:10;;;;;;;3.42;1.30;;;8.80;95.80;;;;;;5033509;28;20140;-64
2022/06/27 11:47:43;;;;;;;3.33;1.30;;;8.80;95.60;;;;;;5038013;28;20061;-64
2022/06/27 11:50:13;;;;;;;10.20;2.08;;;8.80;95.90;;;;;;5031560;28;20037;-64
2022/06/27 11:52:42;;;;;;;12.73;2.47;;;8.70;96.10;;;;;;5029673;28;20095;-66
2022/06/27 11:55:12;;;;;;;11.40;3.00;;;8.60;96.10;;;;;;5027596;28;20495;-63
2022/06/27 11:57:52;;;;;;;9.82;2.30;;;8.50;96.50;;;;;;5028698;28;20439;-63
2022/06/27 12:00:22;;;;;;;10.90;2.70;;;8.50;96.20;;;;;;5024460;28;20024;-63
2022/06/27 12:03:08;;;;;;;6.28;2.92;;;8.60;96.40;;;;;;5029351;28;20478;-63
2022/06/27 12:05:38;;;;;;;12.93;2.75;;;8.50;96.20;;;;;;5028915;28;20021;-64
2022/06/27 12:08:06;;;;;;;5.28;1.45;;;8.60;96.40;;;;;;5033619;28;20021;-65
2022/06/27 12:13:35;;;;;;;4.18;1.40;;;8.50;96.60;;;;;;4988327;28;20092;-65
2022/06/27 12:16:03;;;;;;;2.53;1.45;;;8.50;96.70;;;;;;4984301;28;20030;-64
2022/06/27 12:18:36;;;;;;;3.97;1.33;;;8.50;96.90;;;;;;5006404;28;20033;-63
2022/06/27 12:21:03;;;;;;;2.83;1.23;;;8.50;97.10;;;;;;4988110;28;20030;-65
2022/06/27 12:23:30;;;;;;;4.22;1.52;;;8.40;97.50;;;;;;4987257;28;20047;-65
2022/06/27 12:25:58;;;;;;;5.03;1.10;;;8.40;97.60;;;;;;4988708;28;20038;-65
2022/06/27 12:28:25;;;;;;;2.47;1.45;;;8.40;97.60;;;;;;4989810;28;20157;-66
2022/06/27 12:30:53;;;;;;;3.47;1.13;;;8.40;98.10;;;;;;4995678;28;20548;-63
2022/06/27 12:33:20;;;;;;;3.50;1.30;;;8.30;98.10;;;;;;4992112;28;20042;-64
2022/06/27 12:35:47;;;;;;;2.90;1.20;;;8.30;98.30;;;;;;4996802;28;20085;-64
2022/06/27 12:38:14;;;;;;;3.00;1.20;;;8.20;98.50;;;;;;4991444;28;20057;-64
2022/06/27 12:40:41;;;;;;;4.63;1.42;;;8.30;98.70;;;;;;4990722;28;20022;-64
2022/06/27 12:43:09;;;;;;;6.32;1.50;;;8.20;98.70;;;;;;4985171;28;20262;-65
2022/06/27 12:45:37;;;;;;;4.97;1.67;;;8.30;98.90;;;;;;4995616;28;20022;-62
2022/06/27 12:48:09;;;;;;;5.85;1.65;;;8.40;98.90;;;;;;4988572;28;20038;-65
2022/06/27 12:50:37;;;;;;;4.13;1.50;;;8.30;99.20;;;;;;4997537;28;20120;-65
2022/06/27 12:53:04;;;;;;;2.80;1.40;;;8.20;99.40;;;;;;5009912;28;20022;-67
2022/06/27 12:55:32;;;;;;;3.00;1.42;;;8.20;99.80;;;;;;5010863;28;20435;-64
2022/06/27 12:57:59;;;;;;;5.03;2.60;;;8.20;99.80;;;;;;5012448;28;20033;-64
2022/06/27 13:00:26;;;;;;;2.42;1.17;;;8.30;99.90;;;;;;5010943;28;20473;-65
2022/06/27 13:02:53;;;;;;;3.40;1.50;;;8.30;99.90;;;;;;5011119;28;20025;-63
2022/06/27 13:05:20;;;;;;;2.83;1.73;;;8.30;99.90;;;;;;5005285;28;20044;-63
2022/06/27 13:07:47;;;;;;;5.32;2.30;;;8.30;99.90;;;;;;5010520;28;20025;-64